createdAt,value
2022-11-29T07:50:12.128Z,101366.03
2022-11-29T08:07:00.928Z,101377.62
2022-11-29T08:09:32.339Z,101380.09
2022-11-29T08:12:00.529Z,101384.09
2022-11-29T08:14:31.849Z,101385.66
2022-11-29T08:16:59.623Z,101377.78
2022-11-29T08:19:27.789Z,101376.88
2022-11-29T08:21:55.248Z,101375.41
2022-11-29T08:24:22.996Z,101371.50
2022-11-29T08:26:50.474Z,101378.25
2022-11-29T08:29:19.158Z,101385.09
2022-11-29T08:31:53.244Z,101382.13
2022-11-29T08:34:22.617Z,101387.13
2022-11-29T08:36:51.496Z,101384.25
2022-11-29T08:39:18.985Z,101385.16
2022-11-29T08:41:46.435Z,101385.44
2022-11-29T08:44:14.109Z,101384.09
2022-11-29T08:47:00.003Z,101371.94
2022-11-29T08:49:28.223Z,101376.97
2022-11-29T08:52:15.645Z,101374.41
2022-11-29T08:54:43.858Z,101379.28
2022-11-29T08:57:38.690Z,101373.72
2022-11-29T08:59:59.429Z,101364.41
2022-11-29T09:02:26.971Z,101373.56
2022-11-29T09:04:54.565Z,101373.94
2022-11-29T09:07:22.406Z,101375.44
2022-11-29T09:09:50.188Z,101372.84
2022-11-29T09:12:17.714Z,101375.53
2022-11-29T09:14:45.801Z,101373.88
2022-11-29T09:17:13.468Z,101370.03
2022-11-29T09:19:40.931Z,101371.22
2022-11-29T09:22:08.681Z,101374.12
2022-11-29T09:24:36.364Z,101365.34
2022-11-29T09:27:04.519Z,101354.91
2022-11-29T09:29:32.660Z,101355.00
2022-11-29T09:32:00.217Z,101348.84
2022-11-29T09:34:27.708Z,101353.22
2022-11-29T09:36:55.428Z,101363.69
2022-11-29T09:39:23.031Z,101358.13
2022-11-29T09:42:02.355Z,101358.63
2022-11-29T09:44:41.095Z,101352.66
2022-11-29T09:47:31.906Z,101359.88
2022-11-29T09:50:24.234Z,101360.00
2022-11-29T09:53:10.618Z,101358.31
2022-11-29T09:56:08.813Z,101360.66
2022-11-29T09:58:49.357Z,101358.59
2022-11-29T10:01:26.938Z,101361.28
2022-11-29T10:04:03.035Z,101351.34
2022-11-29T10:06:41.943Z,101345.41
2022-11-29T10:09:17.862Z,101346.16
2022-11-29T10:11:54.101Z,101335.69
2022-11-29T10:14:27.421Z,101337.66
2022-11-29T10:17:08.266Z,101340.91
2022-11-29T10:19:40.200Z,101330.12
2022-11-29T10:22:10.476Z,101312.53
2022-11-29T10:24:40.187Z,101322.59
2022-11-29T10:27:19.621Z,101317.53
2022-11-29T10:29:52.971Z,101327.22
2022-11-29T10:32:23.252Z,101331.66
2022-11-29T10:34:52.105Z,101315.88
2022-11-29T10:37:21.750Z,101329.72
2022-11-29T10:40:04.463Z,101335.63
2022-11-29T10:42:48.872Z,101342.37
2022-11-29T10:45:40.316Z,101331.91
2022-11-29T10:48:18.033Z,101335.09
2022-11-29T10:50:53.432Z,101326.22
2022-11-29T10:53:37.562Z,101316.00
2022-11-29T10:56:22.501Z,101329.34
2022-11-29T10:59:22.916Z,101326.16
2022-11-29T11:01:51.717Z,101319.94
2022-11-29T11:04:45.222Z,101326.22
2022-11-29T11:07:39.538Z,101321.87
2022-11-29T11:10:27.270Z,101325.94
2022-11-29T11:13:20.878Z,101317.09
2022-11-29T11:15:48.408Z,101322.06
2022-11-29T11:18:22.086Z,101325.13
2022-11-29T11:21:10.938Z,101321.53
2022-11-29T11:23:59.532Z,101324.66
2022-11-29T11:26:28.180Z,101331.87
2022-11-29T11:28:59.707Z,101318.06
2022-11-29T11:31:27.080Z,101325.25
2022-11-29T11:33:54.972Z,101314.81
2022-11-29T11:36:25.668Z,101320.00
2022-11-29T11:38:56.558Z,101323.69
2022-11-29T11:41:46.946Z,101322.41
2022-11-29T11:44:46.418Z,101323.88
2022-11-29T11:47:16.980Z,101315.53
2022-11-29T11:49:50.105Z,101322.72
2022-11-29T11:52:23.873Z,101312.66
2022-11-29T11:54:55.860Z,101315.81
2022-11-29T11:57:26.217Z,101313.62
2022-11-29T12:00:02.025Z,101321.25
2022-11-29T12:02:40.841Z,101327.59
2022-11-29T12:05:17.361Z,101323.78
2022-11-29T12:08:13.658Z,101322.53
2022-11-29T12:10:41.949Z,101322.59
2022-11-29T12:13:19.730Z,101315.47
2022-11-29T12:15:49.968Z,101315.47
2022-11-29T12:18:46.812Z,101310.28
2022-11-29T12:21:21.962Z,101324.87
2022-11-29T12:23:58.775Z,101314.91
2022-11-29T12:26:59.728Z,101314.81
2022-11-29T12:29:22.396Z,101319.28
2022-11-29T12:32:14.732Z,101307.66
2022-11-29T12:35:27.272Z,101307.28
2022-11-29T12:38:03.121Z,101304.94
2022-11-29T12:40:51.912Z,101308.50
2022-11-29T12:43:38.346Z,101303.63
2022-11-29T12:46:15.825Z,101302.28
2022-11-29T12:48:49.344Z,101301.91
2022-11-29T12:51:28.424Z,101299.78
2022-11-29T12:54:22.585Z,101297.19
2022-11-29T12:57:22.444Z,101296.22
2022-11-29T13:00:07.673Z,101295.97
2022-11-29T13:03:15.153Z,101295.94
2022-11-29T13:06:16.409Z,101284.75
2022-11-29T13:09:16.876Z,101273.75
2022-11-29T13:12:01.971Z,101276.47
2022-11-29T13:15:01.382Z,101275.97
2022-11-29T13:17:42.514Z,101275.56
2022-11-29T13:20:41.089Z,101267.44
2022-11-29T13:23:20.759Z,101270.25
2022-11-29T13:25:52.362Z,101275.56
2022-11-29T13:28:27.701Z,101276.97
2022-11-29T13:31:00.881Z,101276.69
2022-11-29T13:33:50.106Z,101280.41
2022-11-29T13:37:03.131Z,101284.03
2022-11-29T13:39:36.989Z,101285.59
2022-11-29T13:42:15.909Z,101290.03
2022-11-29T13:45:35.069Z,101281.78
2022-11-29T13:48:28.102Z,101270.06
2022-11-29T13:50:57.804Z,101267.28
2022-11-29T13:53:46.843Z,101276.91
2022-11-29T13:56:29.733Z,101282.53
2022-11-29T13:58:58.979Z,101286.94
2022-11-29T14:01:27.972Z,101289.19
2022-11-29T14:04:06.160Z,101292.88
2022-11-29T14:06:38.845Z,101293.16
2022-11-29T14:09:25.596Z,101295.28
2022-11-29T14:12:02.026Z,101308.25
2022-11-29T14:14:39.690Z,101307.94
2022-11-29T14:17:35.895Z,101309.28
2022-11-29T14:20:22.417Z,101300.78
2022-11-29T14:23:05.313Z,101312.22
2022-11-29T14:25:51.638Z,101310.41
2022-11-29T14:28:21.813Z,101308.59
2022-11-29T14:30:57.370Z,101308.06
2022-11-29T14:33:38.369Z,101314.41
2022-11-29T14:36:15.311Z,101302.88
2022-11-29T14:38:45.704Z,101308.72
2022-11-29T14:41:28.895Z,101311.06
2022-11-29T14:44:20.101Z,101312.03
2022-11-29T14:46:50.560Z,101307.09
2022-11-29T14:49:23.837Z,101312.94
2022-11-29T14:52:17.177Z,101311.25
2022-11-29T14:55:28.694Z,101306.25
2022-11-29T14:58:06.189Z,101310.28
2022-11-29T15:00:48.865Z,101307.69
2022-11-29T15:03:16.467Z,101317.66
2022-11-29T15:05:47.068Z,101309.88
2022-11-29T15:08:27.019Z,101308.25
2022-11-29T15:11:10.012Z,101305.59
2022-11-29T15:13:49.769Z,101306.72
2022-11-29T15:16:36.435Z,101301.25
2022-11-29T15:19:19.188Z,101297.00
2022-11-29T15:22:31.385Z,101309.72
2022-11-29T15:25:11.955Z,101308.09
2022-11-29T15:27:51.165Z,101307.81
2022-11-29T15:30:20.482Z,101307.97
2022-11-29T15:32:48.249Z,101313.72
2022-11-29T15:35:19.502Z,101310.19
2022-11-29T15:37:48.913Z,101310.16
2022-11-29T15:40:17.837Z,101313.25
2022-11-29T15:42:51.385Z,101319.31
2022-11-29T15:45:35.683Z,101313.66
2022-11-29T15:48:24.751Z,101311.87
2022-11-29T15:51:00.873Z,101319.81
2022-11-29T15:53:45.225Z,101323.25
2022-11-29T15:56:25.278Z,101333.44
2022-11-29T15:58:59.531Z,101337.38
2022-11-29T16:01:27.300Z,101328.31
2022-11-29T16:03:57.103Z,101327.19
2022-11-29T16:06:41.551Z,101325.97
2022-11-29T16:09:16.757Z,101331.69
2022-11-29T16:11:45.191Z,101326.50
2022-11-29T16:14:18.396Z,101327.47
2022-11-29T16:16:48.432Z,101324.03
2022-11-29T16:19:28.752Z,101322.41
2022-11-29T16:22:14.577Z,101320.41
2022-11-29T16:24:53.834Z,101321.37
2022-11-29T16:27:22.721Z,101317.06
2022-11-29T16:29:55.050Z,101319.53
2022-11-29T16:32:30.089Z,101324.81
2022-11-29T16:35:17.568Z,101325.97
2022-11-29T16:37:46.709Z,101330.56
2022-11-29T16:40:22.431Z,101322.25
2022-11-29T16:43:21.140Z,101321.16
2022-11-29T16:45:53.936Z,101322.69
2022-11-29T16:48:21.888Z,101323.88
2022-11-29T16:51:12.664Z,101316.72
2022-11-29T16:53:49.784Z,101317.34
2022-11-29T16:56:22.277Z,101327.03
2022-11-29T16:59:20.590Z,101330.34
2022-11-29T17:01:41.952Z,101325.69
2022-11-29T17:04:09.776Z,101334.94
2022-11-29T17:06:37.523Z,101338.78
2022-11-29T17:09:05.763Z,101338.94
2022-11-29T17:11:33.624Z,101346.00
2022-11-29T17:14:01.051Z,101347.81
2022-11-29T17:16:29.269Z,101347.81
2022-11-29T17:18:56.768Z,101347.94
2022-11-29T17:21:26.214Z,101347.72
2022-11-29T17:23:54.485Z,101342.94
2022-11-29T17:26:23.342Z,101340.53
2022-11-29T17:28:52.028Z,101344.94
2022-11-29T17:31:22.788Z,101341.78
2022-11-29T17:33:51.352Z,101345.47
2022-11-29T17:36:20.680Z,101344.09
2022-11-29T17:38:49.069Z,101344.47
2022-11-29T17:41:22.080Z,101346.31
2022-11-29T17:43:51.880Z,101336.81
2022-11-29T17:46:28.465Z,101335.31
2022-11-29T17:48:58.333Z,101336.62
2022-11-29T17:51:51.032Z,101332.72
2022-11-29T17:54:14.820Z,101331.87
2022-11-29T17:56:42.229Z,101325.41
2022-11-29T17:59:10.048Z,101327.88
2022-11-29T18:01:38.012Z,101334.44
2022-11-29T18:04:06.930Z,101335.66
2022-11-29T18:06:37.284Z,101325.78
2022-11-29T18:09:07.549Z,101333.19
2022-11-29T18:11:45.327Z,101340.91
2022-11-29T18:14:20.257Z,101333.03
2022-11-29T18:16:48.632Z,101331.19
2022-11-29T18:19:18.978Z,101335.28
2022-11-29T18:21:47.560Z,101343.22
2022-11-29T18:24:15.516Z,101337.34
2022-11-29T18:26:43.316Z,101338.03
2022-11-29T18:29:11.413Z,101336.22
2022-11-29T18:31:42.273Z,101331.03
2022-11-29T18:34:11.634Z,101334.56
2022-11-29T18:36:48.535Z,101336.28
2022-11-29T18:39:19.020Z,101335.28
2022-11-29T18:41:48.622Z,101340.84
2022-11-29T18:44:19.144Z,101327.53
2022-11-29T18:46:47.437Z,101341.81
2022-11-29T18:49:16.979Z,101337.50
2022-11-29T18:51:46.381Z,101336.97
2022-11-29T18:54:16.024Z,101330.78
2022-11-29T18:56:45.166Z,101331.22
2022-11-29T18:59:17.329Z,101322.72
2022-11-29T19:01:48.083Z,101324.31
2022-11-29T19:04:18.935Z,101341.56
2022-11-29T19:06:47.325Z,101337.25
2022-11-29T19:09:22.402Z,101337.06
2022-11-29T19:11:50.751Z,101338.00
2022-11-29T19:14:19.391Z,101323.25
2022-11-29T19:16:49.030Z,101334.59
2022-11-29T19:19:18.757Z,101333.81
2022-11-29T19:21:47.268Z,101335.97
2022-11-29T19:24:17.720Z,101341.06
2022-11-29T19:26:47.437Z,101345.34
2022-11-29T19:29:16.285Z,101343.84
2022-11-29T19:31:44.093Z,101345.87
2022-11-29T19:34:11.994Z,101340.94
2022-11-29T19:36:43.418Z,101337.69
2022-11-29T19:39:17.159Z,101331.66
2022-11-29T19:41:46.923Z,101335.00
2022-11-29T19:44:15.139Z,101335.31
2022-11-29T19:46:46.016Z,101332.22
2022-11-29T19:49:15.052Z,101334.25
2022-11-29T19:51:43.276Z,101335.84
2022-11-29T19:54:12.056Z,101337.94
2022-11-29T19:56:39.821Z,101337.34
2022-11-29T19:59:08.442Z,101334.44
2022-11-29T20:01:40.692Z,101334.78
2022-11-29T20:04:12.334Z,101334.66
2022-11-29T20:06:40.511Z,101336.84
2022-11-29T20:09:09.308Z,101328.16
2022-11-29T20:11:37.500Z,101332.19
2022-11-29T20:14:07.461Z,101335.75
2022-11-29T20:16:37.917Z,101338.22
2022-11-29T20:19:15.012Z,101335.97
2022-11-29T20:21:45.355Z,101328.37
2022-11-29T20:24:14.643Z,101326.97
2022-11-29T20:26:46.179Z,101324.66
2022-11-29T20:29:15.184Z,101321.16
2022-11-29T20:31:50.206Z,101327.97
2022-11-29T20:34:20.004Z,101322.19
2022-11-29T20:36:55.241Z,101324.66
2022-11-29T20:39:35.478Z,101312.00
2022-11-29T20:42:46.488Z,101321.75
2022-11-29T20:45:15.845Z,101303.50
2022-11-29T20:47:46.359Z,101306.81
2022-11-29T20:50:23.309Z,101310.41
2022-11-29T20:53:16.164Z,101309.28
2022-11-29T20:55:48.006Z,101309.97
2022-11-29T20:58:16.828Z,101305.81
2022-11-29T21:00:45.729Z,101304.00
2022-11-29T21:03:17.783Z,101312.44
2022-11-29T21:05:47.328Z,101312.84
2022-11-29T21:08:16.270Z,101319.78
2022-11-29T21:10:43.736Z,101317.56
2022-11-29T21:13:13.669Z,101311.53
2022-11-29T21:15:42.518Z,101307.31
2022-11-29T21:18:25.207Z,101309.72
2022-11-29T21:21:03.096Z,101312.09
2022-11-29T21:23:46.472Z,101307.06
2022-11-29T21:26:24.521Z,101309.38
2022-11-29T21:29:15.692Z,101312.09
2022-11-29T21:31:44.472Z,101312.84
2022-11-29T21:34:12.079Z,101309.69
2022-11-29T21:36:40.694Z,101311.66
2022-11-29T21:39:12.901Z,101300.66
2022-11-29T21:41:40.454Z,101311.72
2022-11-29T21:44:08.593Z,101314.25
2022-11-29T21:46:36.447Z,101309.03
2022-11-29T21:49:05.006Z,101302.19
2022-11-29T21:51:32.873Z,101310.03
2022-11-29T21:54:01.443Z,101307.31
2022-11-29T21:56:28.837Z,101309.84
2022-11-29T21:58:56.624Z,101316.00
2022-11-29T22:01:24.094Z,101311.91
2022-11-29T22:03:53.148Z,101301.69
2022-11-29T22:06:24.215Z,101302.47
2022-11-29T22:08:52.119Z,101307.41
2022-11-29T22:11:31.124Z,101305.88
2022-11-29T22:14:16.272Z,101308.16
2022-11-29T22:16:50.975Z,101302.31
2022-11-29T22:19:33.149Z,101300.72
2022-11-29T22:22:02.981Z,101284.47
2022-11-29T22:24:34.012Z,101302.84
2022-11-29T22:27:02.102Z,101304.78
2022-11-29T22:29:30.465Z,101301.09
2022-11-29T22:31:59.471Z,101294.84
2022-11-29T22:34:27.597Z,101295.00
2022-11-29T22:36:55.738Z,101297.53
2022-11-29T22:39:24.066Z,101291.37
2022-11-29T22:41:54.751Z,101300.03
2022-11-29T22:44:24.061Z,101289.56
2022-11-29T22:46:51.820Z,101284.75
2022-11-29T22:49:19.583Z,101296.19
2022-11-29T22:51:47.479Z,101284.44
2022-11-29T22:54:16.459Z,101292.53
2022-11-29T22:56:45.524Z,101289.31
2022-11-29T22:59:13.272Z,101290.03
2022-11-29T23:01:41.832Z,101296.97
2022-11-29T23:04:11.379Z,101284.50
2022-11-29T23:06:41.080Z,101282.16
2022-11-29T23:09:19.873Z,101275.81
2022-11-29T23:11:56.254Z,101280.63
2022-11-29T23:14:24.489Z,101277.06
2022-11-29T23:16:52.366Z,101273.47
2022-11-29T23:19:20.719Z,101270.87
2022-11-29T23:21:48.470Z,101261.38
2022-11-29T23:24:16.568Z,101276.56
2022-11-29T23:26:46.942Z,101271.78
2022-11-29T23:29:17.383Z,101266.31
2022-11-29T23:31:46.684Z,101270.44
2022-11-29T23:34:14.688Z,101265.13
2022-11-29T23:36:42.124Z,101264.69
2022-11-29T23:39:10.060Z,101265.97
2022-11-29T23:41:37.635Z,101269.16
2022-11-29T23:44:05.998Z,101260.78
2022-11-29T23:46:35.091Z,101259.75
2022-11-29T23:49:02.637Z,101258.94
2022-11-29T23:51:30.048Z,101254.94
2022-11-29T23:53:57.768Z,101249.63
2022-11-29T23:56:25.429Z,101256.75
2022-11-29T23:58:52.848Z,101250.59
